^^
Saratoga-Weather Station Historical Data
Daily Summary for May 6, 2020 Units:  Both    English   Metric
Daily Weekly Monthly Yearly Custom
  High: Low: Average:
Temperature: 66.4 °F /  19.1 °C 42.3 °F /  5.7 °C 54.7 °F /  12.6 °C
Dew Point: 42.8 °F /  6 °C 33.8 °F /  1 °C 36.5 °F /  2.5 °C
Humidity: 73% 33% 53%
Wind Speed: 11mph /  17.7km/h - 1.7mph /  2.8km/h
Wind Gust: 14mph /  22.5km/h - -
Wind- - SE
Pressure: 30.2 in /  1023.4 hPa 30.1 in /  1019.6 hPa -
Precipitation: 0 in /  0.0 mm    
Historical Graphs
 
 
Tabular Data for May 6, 2020
Time Temperature Dew Point Pressure Wind Wind Speed Wind Gust Humidity Rainfall Rate (Hourly) solar
00:04 51.8 °F /  11 °C 42.6 °F /  5.9 °C 30.1in /  1019.6hPa Calm   2mph /  3.2km/h 71% 0in /  0.0mm 0 W/m2
00:09 51.8 °F /  11 °C 42.6 °F /  5.9 °C 30.1in /  1019.6hPa Calm   1mph /  1.6km/h 71% 0in /  0.0mm 0 W/m2
00:14 51.6 °F /  10.9 °C 42.1 °F /  5.6 °C 30.1in /  1019.6hPa ESE 0.9mph /  1.4km/h 2mph /  3.2km/h 70% 0in /  0.0mm 0 W/m2
00:19 51.8 °F /  11 °C 41.9 °F /  5.5 °C 30.1in /  1019.6hPa Calm   2mph /  3.2km/h 69% 0in /  0.0mm 0 W/m2
00:24 52 °F /  11.1 °C 42.1 °F /  5.6 °C 30.1in /  1019.6hPa Calm   1mph /  1.6km/h 69% 0in /  0.0mm 0 W/m2
00:29 52 °F /  11.1 °C 42.1 °F /  5.6 °C 30.1in /  1020.0hPa Calm     69% 0in /  0.0mm 0 W/m2
00:34 52 °F /  11.1 °C 42.4 °F /  5.8 °C 30.1in /  1020.0hPa ESE 0.9mph /  1.4km/h 1mph /  1.6km/h 70% 0in /  0.0mm 0 W/m2
00:39 52 °F /  11.1 °C 42.8 °F /  6 °C 30.1in /  1020.0hPa Calm     71% 0in /  0.0mm 0 W/m2
00:44 51.8 °F /  11 °C 42.6 °F /  5.9 °C 30.1in /  1020.0hPa Calm   2mph /  3.2km/h 71% 0in /  0.0mm 0 W/m2
00:49 51.6 °F /  10.9 °C 42.4 °F /  5.8 °C 30.1in /  1020.0hPa Calm     71% 0in /  0.0mm 0 W/m2
00:54 51.6 °F /  10.9 °C 42.4 °F /  5.8 °C 30.1in /  1020.0hPa South 0.9mph /  1.4km/h 1mph /  1.6km/h 71% 0in /  0.0mm 0 W/m2
00:59 51.4 °F /  10.8 °C 41.9 °F /  5.5 °C 30.1in /  1020.0hPa Calm   2mph /  3.2km/h 70% 0in /  0.0mm 0 W/m2
01:04 51.3 °F /  10.7 °C 41.9 °F /  5.5 °C 30.1in /  1020.0hPa WSW 0.9mph /  1.4km/h 1mph /  1.6km/h 70% 0in /  0.0mm 0 W/m2
01:09 51.3 °F /  10.7 °C 41.9 °F /  5.5 °C 30.1in /  1020.0hPa Calm   2mph /  3.2km/h 70% 0in /  0.0mm 0 W/m2
01:14 51.1 °F /  10.6 °C 41.7 °F /  5.4 °C 30.1in /  1020.0hPa WSW 0.9mph /  1.4km/h 2mph /  3.2km/h 70% 0in /  0.0mm 0 W/m2
01:19 50.9 °F /  10.5 °C 40.6 °F /  4.8 °C 30.1in /  1020.3hPa Calm   1mph /  1.6km/h 68% 0in /  0.0mm 0 W/m2
01:24 50.9 °F /  10.5 °C 40.3 °F /  4.6 °C 30.1in /  1020.3hPa Calm   2mph /  3.2km/h 67% 0in /  0.0mm 0 W/m2
01:29 50.9 °F /  10.5 °C 40.6 °F /  4.8 °C 30.1in /  1020.3hPa Calm   1mph /  1.6km/h 68% 0in /  0.0mm 0 W/m2
01:34 50.7 °F /  10.4 °C 40.5 °F /  4.7 °C 30.1in /  1020.3hPa Calm     68% 0in /  0.0mm 0 W/m2
01:39 50.5 °F /  10.3 °C 39.9 °F /  4.4 °C 30.1in /  1020.3hPa Calm   1mph /  1.6km/h 67% 0in /  0.0mm 0 W/m2
01:44 50.4 °F /  10.2 °C 40.3 °F /  4.6 °C 30.1in /  1020.3hPa Calm   1mph /  1.6km/h 68% 0in /  0.0mm 0 W/m2
01:49 50.4 °F /  10.2 °C 39 °F /  3.9 °C 30.1in /  1020.0hPa Calm   1mph /  1.6km/h 65% 0in /  0.0mm 0 W/m2
01:54 50.2 °F /  10.1 °C 38.1 °F /  3.4 °C 30.1in /  1020.3hPa Calm     63% 0in /  0.0mm 0 W/m2
01:59 50.2 °F /  10.1 °C 38.1 °F /  3.4 °C 30.1in /  1020.3hPa NNE 0.9mph /  1.4km/h 2mph /  3.2km/h 63% 0in /  0.0mm 0 W/m2
02:04 50.2 °F /  10.1 °C 38.1 °F /  3.4 °C 30.1in /  1020.3hPa North 0.9mph /  1.4km/h 1mph /  1.6km/h 63% 0in /  0.0mm 0 W/m2
02:10 50.2 °F /  10.1 °C 37.6 °F /  3.1 °C 30.1in /  1020.3hPa Calm   1mph /  1.6km/h 62% 0in /  0.0mm 0 W/m2
02:15 50 °F /  10 °C 37.6 °F /  3.1 °C 30.1in /  1020.3hPa North 0.9mph /  1.4km/h 1mph /  1.6km/h 62% 0in /  0.0mm 0 W/m2
02:20 49.8 °F /  9.9 °C 37.4 °F /  3 °C 30.1in /  1020.3hPa Calm     62% 0in /  0.0mm 0 W/m2
02:25 49.8 °F /  9.9 °C 37.8 °F /  3.2 °C 30.1in /  1020.3hPa WSW 0.9mph /  1.4km/h 2mph /  3.2km/h 63% 0in /  0.0mm 0 W/m2
02:30 49.6 °F /  9.8 °C 37.2 °F /  2.9 °C 30.1in /  1020.3hPa Calm   4mph /  6.4km/h 62% 0in /  0.0mm 0 W/m2
02:35 49.5 °F /  9.7 °C 37 °F /  2.8 °C 30.1in /  1020.3hPa NE 2mph /  3.2km/h 3mph /  4.8km/h 62% 0in /  0.0mm 0 W/m2
02:40 49.5 °F /  9.7 °C 37 °F /  2.8 °C 30.1in /  1020.3hPa ESE 0.9mph /  1.4km/h 2mph /  3.2km/h 62% 0in /  0.0mm 0 W/m2
02:45 49.3 °F /  9.6 °C 37.2 °F /  2.9 °C 30.1in /  1020.3hPa Calm   3mph /  4.8km/h 63% 0in /  0.0mm 0 W/m2
02:50 48.9 °F /  9.4 °C 36.9 °F /  2.7 °C 30.1in /  1020.3hPa Calm     63% 0in /  0.0mm 0 W/m2
02:55 48.7 °F /  9.3 °C 36.3 °F /  2.4 °C 30.1in /  1020.3hPa ESE 0.9mph /  1.4km/h 1mph /  1.6km/h 62% 0in /  0.0mm 0 W/m2
03:00 48.4 °F /  9.1 °C 36.3 °F /  2.4 °C 30.1in /  1020.3hPa Calm   1mph /  1.6km/h 63% 0in /  0.0mm 0 W/m2
03:05 48 °F /  8.9 °C 36 °F /  2.2 °C 30.1in /  1020.3hPa Calm     63% 0in /  0.0mm 0 W/m2
03:10 47.8 °F /  8.8 °C 36.3 °F /  2.4 °C 30.1in /  1020.3hPa Calm   1mph /  1.6km/h 64% 0in /  0.0mm 0 W/m2
03:15 47.7 °F /  8.7 °C 36.1 °F /  2.3 °C 30.1in /  1020.3hPa SE 0.9mph /  1.4km/h 1mph /  1.6km/h 64% 0in /  0.0mm 0 W/m2
03:20 47.1 °F /  8.4 °C 35.6 °F /  2 °C 30.1in /  1020.3hPa Calm   1mph /  1.6km/h 64% 0in /  0.0mm 0 W/m2
03:25 46.9 °F /  8.3 °C 35.8 °F /  2.1 °C 30.1in /  1020.3hPa Calm     65% 0in /  0.0mm 0 W/m2
03:31 46.8 °F /  8.2 °C 36 °F /  2.2 °C 30.1in /  1020.3hPa NE 0.9mph /  1.4km/h 1mph /  1.6km/h 66% 0in /  0.0mm 0 W/m2
03:36 46.4 °F /  8 °C 36 °F /  2.2 °C 30.1in /  1020.3hPa Calm   1mph /  1.6km/h 67% 0in /  0.0mm 0 W/m2
03:41 46 °F /  7.8 °C 36.1 °F /  2.3 °C 30.1in /  1020.3hPa Calm     68% 0in /  0.0mm 0 W/m2
03:46 45.9 °F /  7.7 °C 36.3 °F /  2.4 °C 30.1in /  1020.3hPa Calm   2mph /  3.2km/h 69% 0in /  0.0mm 0 W/m2
03:51 45.3 °F /  7.4 °C 35.8 °F /  2.1 °C 30.1in /  1020.3hPa Calm   1mph /  1.6km/h 69% 0in /  0.0mm 0 W/m2
03:56 45.1 °F /  7.3 °C 36 °F /  2.2 °C 30.1in /  1020.3hPa South 0.9mph /  1.4km/h 2mph /  3.2km/h 70% 0in /  0.0mm 0 W/m2
04:01 44.8 °F /  7.1 °C 35.6 °F /  2 °C 30.1in /  1020.3hPa Calm     70% 0in /  0.0mm 0 W/m2
04:06 44.6 °F /  7 °C 35.8 °F /  2.1 °C 30.1in /  1020.7hPa Calm     71% 0in /  0.0mm 0 W/m2
04:11 44.2 °F /  6.8 °C 35.4 °F /  1.9 °C 30.1in /  1020.7hPa Calm   1mph /  1.6km/h 71% 0in /  0.0mm 0 W/m2
04:16 44.1 °F /  6.7 °C 35.2 °F /  1.8 °C 30.1in /  1020.7hPa Calm   3mph /  4.8km/h 71% 0in /  0.0mm 0 W/m2
04:21 43.9 °F /  6.6 °C 35.4 °F /  1.9 °C 30.1in /  1020.7hPa Calm   2mph /  3.2km/h 72% 0in /  0.0mm 0 W/m2
04:26 43.7 °F /  6.5 °C 34.9 °F /  1.6 °C 30.1in /  1020.7hPa SSW 0.9mph /  1.4km/h 2mph /  3.2km/h 71% 0in /  0.0mm 0 W/m2
04:31 43.7 °F /  6.5 °C 34.9 °F /  1.6 °C 30.1in /  1020.7hPa SSW 0.9mph /  1.4km/h 1mph /  1.6km/h 71% 0in /  0.0mm 0 W/m2
04:36 43.5 °F /  6.4 °C 34.7 °F /  1.5 °C 30.1in /  1020.7hPa West 2mph /  3.2km/h 3mph /  4.8km/h 71% 0in /  0.0mm 0 W/m2
04:41 43.7 °F /  6.5 °C 34.5 °F /  1.4 °C 30.1in /  1020.7hPa Calm   1mph /  1.6km/h 70% 0in /  0.0mm 0 W/m2
04:46 43.7 °F /  6.5 °C 34.9 °F /  1.6 °C 30.1in /  1020.7hPa WSW 2.9mph /  4.7km/h 4mph /  6.4km/h 71% 0in /  0.0mm 0 W/m2
04:51 43.9 °F /  6.6 °C 34.3 °F /  1.3 °C 30.1in /  1020.7hPa WSW 2mph /  3.2km/h 2mph /  3.2km/h 69% 0in /  0.0mm 0 W/m2
04:56 44.1 °F /  6.7 °C 34.5 °F /  1.4 °C 30.1in /  1020.7hPa SW 4mph /  6.4km/h 4mph /  6.4km/h 69% 0in /  0.0mm 0 W/m2
05:01 44.1 °F /  6.7 °C 34.5 °F /  1.4 °C 30.2in /  1021.0hPa West 0.9mph /  1.4km/h 1mph /  1.6km/h 69% 0in /  0.0mm 0 W/m2
05:07 43.9 °F /  6.6 °C 34.7 °F /  1.5 °C 30.1in /  1020.7hPa West 2mph /  3.2km/h 3mph /  4.8km/h 70% 0in /  0.0mm 0 W/m2
05:12 43.7 °F /  6.5 °C 34.5 °F /  1.4 °C 30.1in /  1020.7hPa West 0.9mph /  1.4km/h 2mph /  3.2km/h 70% 0in /  0.0mm 0 W/m2
05:17 43.5 °F /  6.4 °C 34.3 °F /  1.3 °C 30.1in /  1020.7hPa West 2mph /  3.2km/h 3mph /  4.8km/h 70% 0in /  0.0mm 0 W/m2
05:22 43.3 °F /  6.3 °C 34.5 °F /  1.4 °C 30.2in /  1021.0hPa Calm   1mph /  1.6km/h 71% 0in /  0.0mm 0 W/m2
05:27 43.2 °F /  6.2 °C 34.3 °F /  1.3 °C 30.1in /  1020.7hPa Calm   3mph /  4.8km/h 71% 0in /  0.0mm 0 W/m2
05:32 43.2 °F /  6.2 °C 34.3 °F /  1.3 °C 30.1in /  1020.7hPa West 0.9mph /  1.4km/h 1mph /  1.6km/h 71% 0in /  0.0mm 0 W/m2
05:37 43.2 °F /  6.2 °C 34.3 °F /  1.3 °C 30.2in /  1021.0hPa SSW 0.9mph /  1.4km/h 1mph /  1.6km/h 71% 0in /  0.0mm 0 W/m2
05:42 43 °F /  6.1 °C 34.2 °F /  1.2 °C 30.1in /  1020.7hPa SSW 2mph /  3.2km/h 2mph /  3.2km/h 71% 0in /  0.0mm 0 W/m2
05:47 42.8 °F /  6 °C 34 °F /  1.1 °C 30.2in /  1021.0hPa SW 0.9mph /  1.4km/h 3mph /  4.8km/h 71% 0in /  0.0mm 0 W/m2
05:52 42.6 °F /  5.9 °C 34.2 °F /  1.2 °C 30.2in /  1021.0hPa SW 2mph /  3.2km/h 2mph /  3.2km/h 72% 0in /  0.0mm 0 W/m2
05:57 42.4 °F /  5.8 °C 34 °F /  1.1 °C 30.2in /  1021.0hPa SW 2mph /  3.2km/h 2mph /  3.2km/h 72% 0in /  0.0mm 0 W/m2
06:02 42.4 °F /  5.8 °C 34 °F /  1.1 °C 30.2in /  1021.0hPa West 0.9mph /  1.4km/h 1mph /  1.6km/h 72% 0in /  0.0mm 0 W/m2
06:07 42.6 °F /  5.9 °C 34.2 °F /  1.2 °C 30.2in /  1021.0hPa West 0.9mph /  1.4km/h 2mph /  3.2km/h 72% 0in /  0.0mm 5 W/m2
06:12 42.4 °F /  5.8 °C 34 °F /  1.1 °C 30.2in /  1021.0hPa Calm     72% 0in /  0.0mm 7 W/m2
06:17 42.3 °F /  5.7 °C 34.2 °F /  1.2 °C 30.2in /  1021.0hPa West 2mph /  3.2km/h 2mph /  3.2km/h 73% 0in /  0.0mm 9 W/m2
06:22 42.3 °F /  5.7 °C 33.8 °F /  1 °C 30.1in /  1020.7hPa WSW 0.9mph /  1.4km/h 2mph /  3.2km/h 72% 0in /  0.0mm 11 W/m2
06:28 42.4 °F /  5.8 °C 34 °F /  1.1 °C 30.2in /  1021.0hPa Calm     72% 0in /  0.0mm 12 W/m2
06:33 42.4 °F /  5.8 °C 34 °F /  1.1 °C 30.2in /  1021.0hPa Calm   2mph /  3.2km/h 72% 0in /  0.0mm 14 W/m2
06:38 42.6 °F /  5.9 °C 33.8 °F /  1 °C 30.2in /  1021.0hPa WNW 2mph /  3.2km/h 4mph /  6.4km/h 71% 0in /  0.0mm 18 W/m2
06:43 42.8 °F /  6 °C 34 °F /  1.1 °C 30.2in /  1021.0hPa WNW 2mph /  3.2km/h 2mph /  3.2km/h 71% 0in /  0.0mm 19 W/m2
06:48 43 °F /  6.1 °C 34.2 °F /  1.2 °C 30.2in /  1021.0hPa WNW 0.9mph /  1.4km/h 4mph /  6.4km/h 71% 0in /  0.0mm 21 W/m2
06:53 43.2 °F /  6.2 °C 34 °F /  1.1 °C 30.2in /  1021.0hPa WNW 0.9mph /  1.4km/h 2mph /  3.2km/h 70% 0in /  0.0mm 23 W/m2
06:58 43.3 °F /  6.3 °C 34.2 °F /  1.2 °C 30.2in /  1021.3hPa WNW 0.9mph /  1.4km/h 3mph /  4.8km/h 70% 0in /  0.0mm 25 W/m2
07:03 43.5 °F /  6.4 °C 34 °F /  1.1 °C 30.2in /  1021.3hPa Calm     69% 0in /  0.0mm 25 W/m2
07:08 43.5 °F /  6.4 °C 34.3 °F /  1.3 °C 30.2in /  1021.3hPa WNW 2mph /  3.2km/h 3mph /  4.8km/h 70% 0in /  0.0mm 26 W/m2
07:13 43.9 °F /  6.6 °C 34 °F /  1.1 °C 30.2in /  1021.3hPa WNW 0.9mph /  1.4km/h 2mph /  3.2km/h 68% 0in /  0.0mm 28 W/m2
07:18 44.1 °F /  6.7 °C 33.8 °F /  1 °C 30.2in /  1021.3hPa WNW 0.9mph /  1.4km/h 2mph /  3.2km/h 67% 0in /  0.0mm 28 W/m2
07:23 44.2 °F /  6.8 °C 34 °F /  1.1 °C 30.2in /  1021.3hPa Calm   1mph /  1.6km/h 67% 0in /  0.0mm 30 W/m2
07:28 44.4 °F /  6.9 °C 34.2 °F /  1.2 °C 30.2in /  1021.3hPa WNW 0.9mph /  1.4km/h 2mph /  3.2km/h 67% 0in /  0.0mm 32 W/m2
07:33 44.8 °F /  7.1 °C 34.5 °F /  1.4 °C 30.2in /  1021.3hPa WNW 2mph /  3.2km/h 2mph /  3.2km/h 67% 0in /  0.0mm 33 W/m2
07:38 45 °F /  7.2 °C 34.3 °F /  1.3 °C 30.2in /  1021.7hPa WNW 0.9mph /  1.4km/h 2mph /  3.2km/h 66% 0in /  0.0mm 33 W/m2
07:43 45.1 °F /  7.3 °C 34.5 °F /  1.4 °C 30.2in /  1021.7hPa WNW 0.9mph /  1.4km/h 2mph /  3.2km/h 66% 0in /  0.0mm 35 W/m2
07:48 45.3 °F /  7.4 °C 35.1 °F /  1.7 °C 30.2in /  1021.7hPa Calm   2mph /  3.2km/h 67% 0in /  0.0mm 39 W/m2
07:53 45.7 °F /  7.6 °C 35.1 °F /  1.7 °C 30.2in /  1021.7hPa NW 2mph /  3.2km/h 2mph /  3.2km/h 66% 0in /  0.0mm 183 W/m2
07:58 45.9 °F /  7.7 °C 34.7 °F /  1.5 °C 30.2in /  1021.7hPa NNW 2mph /  3.2km/h 2mph /  3.2km/h 65% 0in /  0.0mm 209 W/m2
08:03 46.2 °F /  7.9 °C 35.4 °F /  1.9 °C 30.2in /  1021.7hPa NE 0.9mph /  1.4km/h 2mph /  3.2km/h 66% 0in /  0.0mm 190 W/m2
08:09 47.1 °F /  8.4 °C 35.6 °F /  2 °C 30.2in /  1022.0hPa NE 0.9mph /  1.4km/h 2mph /  3.2km/h 64% 0in /  0.0mm 279 W/m2
08:14 48 °F /  8.9 °C 35.6 °F /  2 °C 30.2in /  1022.0hPa Calm   2mph /  3.2km/h 62% 0in /  0.0mm 292 W/m2
08:19 48.6 °F /  9.2 °C 35.8 °F /  2.1 °C 30.2in /  1022.0hPa ENE 6mph /  9.7km/h 6mph /  9.7km/h 61% 0in /  0.0mm 309 W/m2
08:24 48.7 °F /  9.3 °C 35.4 °F /  1.9 °C 30.2in /  1022.0hPa SE 0.9mph /  1.4km/h 3mph /  4.8km/h 60% 0in /  0.0mm 316 W/m2
08:29 49.1 °F /  9.5 °C 36.7 °F /  2.6 °C 30.2in /  1022.0hPa ESE 4mph /  6.4km/h 6mph /  9.7km/h 62% 0in /  0.0mm 334 W/m2
08:34 49.5 °F /  9.7 °C 36.1 °F /  2.3 °C 30.2in /  1022.0hPa ENE 2mph /  3.2km/h 3mph /  4.8km/h 60% 0in /  0.0mm 346 W/m2
08:39 49.6 °F /  9.8 °C 36.3 °F /  2.4 °C 30.2in /  1022.0hPa ENE 2mph /  3.2km/h 3mph /  4.8km/h 60% 0in /  0.0mm 364 W/m2
08:44 49.6 °F /  9.8 °C 36 °F /  2.2 °C 30.2in /  1022.0hPa Calm   4mph /  6.4km/h 59% 0in /  0.0mm 373 W/m2
08:49 49.8 °F /  9.9 °C 36.1 °F /  2.3 °C 30.2in /  1022.0hPa ENE 0.9mph /  1.4km/h 3mph /  4.8km/h 59% 0in /  0.0mm 387 W/m2
08:54 49.8 °F /  9.9 °C 36.1 °F /  2.3 °C 30.2in /  1022.0hPa Calm   3mph /  4.8km/h 59% 0in /  0.0mm 401 W/m2
08:59 50.2 °F /  10.1 °C 36.3 °F /  2.4 °C 30.2in /  1022.0hPa NE 6.9mph /  11.1km/h 8mph /  12.9km/h 59% 0in /  0.0mm 415 W/m2
09:04 50.2 °F /  10.1 °C 36.3 °F /  2.4 °C 30.2in /  1022.4hPa East 2mph /  3.2km/h 3mph /  4.8km/h 59% 0in /  0.0mm 427 W/m2
09:09 50.7 °F /  10.4 °C 36.9 °F /  2.7 °C 30.2in /  1022.4hPa East 2.9mph /  4.7km/h 5mph /  8km/h 59% 0in /  0.0mm 441 W/m2
09:14 51.3 °F /  10.7 °C 36.5 °F /  2.5 °C 30.2in /  1022.0hPa NE 4.9mph /  7.9km/h 6mph /  9.7km/h 57% 0in /  0.0mm 454 W/m2
09:19 51.4 °F /  10.8 °C 36.7 °F /  2.6 °C 30.2in /  1022.4hPa North 4mph /  6.4km/h 11mph /  17.7km/h 57% 0in /  0.0mm 466 W/m2
09:24 51.8 °F /  11 °C 37 °F /  2.8 °C 30.2in /  1022.0hPa East 2mph /  3.2km/h 6mph /  9.7km/h 57% 0in /  0.0mm 480 W/m2
09:29 52.3 °F /  11.3 °C 37.9 °F /  3.3 °C 30.2in /  1022.4hPa ENE 2.9mph /  4.7km/h 4mph /  6.4km/h 58% 0in /  0.0mm 490 W/m2
09:34 53.2 °F /  11.8 °C 37.9 °F /  3.3 °C 30.2in /  1022.0hPa East 2.9mph /  4.7km/h 4mph /  6.4km/h 56% 0in /  0.0mm 503 W/m2
09:39 54 °F /  12.2 °C 37.2 °F /  2.9 °C 30.2in /  1022.0hPa NE 2.9mph /  4.7km/h 5mph /  8km/h 53% 0in /  0.0mm 515 W/m2
09:44 54.3 °F /  12.4 °C 35.6 °F /  2 °C 30.2in /  1022.0hPa ENE 2mph /  3.2km/h 8mph /  12.9km/h 49% 0in /  0.0mm 527 W/m2
09:49 54.7 °F /  12.6 °C 35.4 °F /  1.9 °C 30.2in /  1022.0hPa ENE 4.9mph /  7.9km/h 11mph /  17.7km/h 48% 0in /  0.0mm 534 W/m2
09:54 54.7 °F /  12.6 °C 35.4 °F /  1.9 °C 30.2in /  1022.4hPa East 2.9mph /  4.7km/h 10mph /  16.1km/h 48% 0in /  0.0mm 534 W/m2
09:59 54.9 °F /  12.7 °C 36.1 °F /  2.3 °C 30.2in /  1022.4hPa ENE 6.9mph /  11.1km/h 11mph /  17.7km/h 49% 0in /  0.0mm 545 W/m2
10:04 55 °F /  12.8 °C 36.1 °F /  2.3 °C 30.2in /  1022.4hPa NNE 4mph /  6.4km/h 7mph /  11.3km/h 49% 0in /  0.0mm 466 W/m2
10:09 55.4 °F /  13 °C 37 °F /  2.8 °C 30.2in /  1022.4hPa East 4mph /  6.4km/h 7mph /  11.3km/h 50% 0in /  0.0mm 111 W/m2
10:14 55.8 °F /  13.2 °C 36.3 °F /  2.4 °C 30.2in /  1022.4hPa ENE 2.9mph /  4.7km/h 6mph /  9.7km/h 48% 0in /  0.0mm 594 W/m2
10:19 55.9 °F /  13.3 °C 36 °F /  2.2 °C 30.2in /  1022.4hPa SSE 4mph /  6.4km/h 7mph /  11.3km/h 47% 0in /  0.0mm 606 W/m2
10:24 56.1 °F /  13.4 °C 35.6 °F /  2 °C 30.2in /  1022.4hPa NW 4.9mph /  7.9km/h 12mph /  19.3km/h 46% 0in /  0.0mm 617 W/m2
10:29 56.5 °F /  13.6 °C 36.5 °F /  2.5 °C 30.2in /  1022.4hPa East 2mph /  3.2km/h 7mph /  11.3km/h 47% 0in /  0.0mm 628 W/m2
10:34 56.7 °F /  13.7 °C 36.1 °F /  2.3 °C 30.2in /  1022.4hPa East 6mph /  9.7km/h 10mph /  16.1km/h 46% 0in /  0.0mm 638 W/m2
10:39 56.7 °F /  13.7 °C 37.2 °F /  2.9 °C 30.2in /  1022.4hPa ENE 2.9mph /  4.7km/h 4mph /  6.4km/h 48% 0in /  0.0mm 649 W/m2
10:44 57 °F /  13.9 °C 37 °F /  2.8 °C 30.2in /  1022.4hPa ENE 4.9mph /  7.9km/h 9mph /  14.5km/h 47% 0in /  0.0mm 657 W/m2
10:49 57.4 °F /  14.1 °C 37.4 °F /  3 °C 30.2in /  1022.4hPa NW 2mph /  3.2km/h 4mph /  6.4km/h 47% 0in /  0.0mm 668 W/m2
10:54 57.6 °F /  14.2 °C 36.3 °F /  2.4 °C 30.2in /  1022.4hPa ENE 4.9mph /  7.9km/h 10mph /  16.1km/h 45% 0in /  0.0mm 675 W/m2
10:59 57.7 °F /  14.3 °C 37 °F /  2.8 °C 30.2in /  1022.4hPa NE 6mph /  9.7km/h 9mph /  14.5km/h 46% 0in /  0.0mm 686 W/m2
11:04 58.1 °F /  14.5 °C 36.3 °F /  2.4 °C 30.2in /  1022.4hPa NE 8.9mph /  14.3km/h 10mph /  16.1km/h 44% 0in /  0.0mm 696 W/m2
11:09 58.3 °F /  14.6 °C 36.5 °F /  2.5 °C 30.2in /  1022.4hPa East 4.9mph /  7.9km/h 6mph /  9.7km/h 44% 0in /  0.0mm 703 W/m2
11:14 58.1 °F /  14.5 °C 36.9 °F /  2.7 °C 30.2in /  1022.4hPa ESE 4mph /  6.4km/h 7mph /  11.3km/h 45% 0in /  0.0mm 710 W/m2
11:19 58.3 °F /  14.6 °C 36 °F /  2.2 °C 30.2in /  1022.4hPa SE 6.9mph /  11.1km/h 10mph /  16.1km/h 43% 0in /  0.0mm 717 W/m2
11:24 58.3 °F /  14.6 °C 36.5 °F /  2.5 °C 30.2in /  1022.4hPa SE 6.9mph /  11.1km/h 14mph /  22.5km/h 44% 0in /  0.0mm 724 W/m2
11:29 58.5 °F /  14.7 °C 36.7 °F /  2.6 °C 30.2in /  1022.4hPa SSW 2.9mph /  4.7km/h 4mph /  6.4km/h 44% 0in /  0.0mm 737 W/m2
11:34 58.8 °F /  14.9 °C 35.8 °F /  2.1 °C 30.2in /  1022.4hPa ESE 8.9mph /  14.3km/h 14mph /  22.5km/h 42% 0in /  0.0mm 742 W/m2
11:39 59.2 °F /  15.1 °C 36.1 °F /  2.3 °C 30.2in /  1022.4hPa WSW 0.9mph /  1.4km/h 9mph /  14.5km/h 42% 0in /  0.0mm 747 W/m2
11:44 59.2 °F /  15.1 °C 36.1 °F /  2.3 °C 30.2in /  1022.4hPa NE 6mph /  9.7km/h 8mph /  12.9km/h 42% 0in /  0.0mm 758 W/m2
11:49 59.2 °F /  15.1 °C 37.9 °F /  3.3 °C 30.2in /  1022.4hPa NE 0.9mph /  1.4km/h 6mph /  9.7km/h 45% 0in /  0.0mm 761 W/m2
11:54 59.4 °F /  15.2 °C 36.3 °F /  2.4 °C 30.2in /  1022.4hPa South 0.9mph /  1.4km/h 6mph /  9.7km/h 42% 0in /  0.0mm 765 W/m2
11:59 59.5 °F /  15.3 °C 36.5 °F /  2.5 °C 30.2in /  1022.4hPa North 4mph /  6.4km/h 9mph /  14.5km/h 42% 0in /  0.0mm 770 W/m2
12:04 59.4 °F /  15.2 °C 35.1 °F /  1.7 °C 30.2in /  1022.4hPa ENE 2mph /  3.2km/h 4mph /  6.4km/h 40% 0in /  0.0mm 777 W/m2
12:09 59.7 °F /  15.4 °C 36 °F /  2.2 °C 30.2in /  1022.4hPa NE 4mph /  6.4km/h 7mph /  11.3km/h 41% 0in /  0.0mm 786 W/m2
12:14 60.1 °F /  15.6 °C 35.1 °F /  1.7 °C 30.2in /  1022.4hPa NNE 2mph /  3.2km/h 6mph /  9.7km/h 39% 0in /  0.0mm 793 W/m2
12:19 60.1 °F /  15.6 °C 35.1 °F /  1.7 °C 30.2in /  1022.4hPa ENE 2mph /  3.2km/h 13mph /  20.9km/h 39% 0in /  0.0mm 795 W/m2
12:24 60.1 °F /  15.6 °C 35.6 °F /  2 °C 30.2in /  1022.4hPa NE 2.9mph /  4.7km/h 9mph /  14.5km/h 40% 0in /  0.0mm 798 W/m2
12:29 59.7 °F /  15.4 °C 34.7 °F /  1.5 °C 30.2in /  1022.4hPa ESE 2.9mph /  4.7km/h 12mph /  19.3km/h 39% 0in /  0.0mm 800 W/m2
12:34 59.7 °F /  15.4 °C 34.7 °F /  1.5 °C 30.2in /  1022.4hPa ENE 2mph /  3.2km/h 8mph /  12.9km/h 39% 0in /  0.0mm 805 W/m2
12:39 60.3 °F /  15.7 °C 35.2 °F /  1.8 °C 30.2in /  1022.4hPa NNE 4.9mph /  7.9km/h 8mph /  12.9km/h 39% 0in /  0.0mm 810 W/m2
12:44 60.3 °F /  15.7 °C 34.5 °F /  1.4 °C 30.2in /  1022.4hPa East 2mph /  3.2km/h 7mph /  11.3km/h 38% 0in /  0.0mm 810 W/m2
12:49 60.3 °F /  15.7 °C 35.2 °F /  1.8 °C 30.2in /  1022.4hPa ESE 4mph /  6.4km/h 7mph /  11.3km/h 39% 0in /  0.0mm 816 W/m2
12:54 60.4 °F /  15.8 °C 35.4 °F /  1.9 °C 30.2in /  1022.4hPa NW 2.9mph /  4.7km/h 9mph /  14.5km/h 39% 0in /  0.0mm 816 W/m2
12:59 60.6 °F /  15.9 °C 36.1 °F /  2.3 °C 30.2in /  1022.4hPa ENE 6mph /  9.7km/h 14mph /  22.5km/h 40% 0in /  0.0mm 814 W/m2
13:04 60.6 °F /  15.9 °C 34.9 °F /  1.6 °C 30.2in /  1022.4hPa SE 0.9mph /  1.4km/h 6mph /  9.7km/h 38% 0in /  0.0mm 819 W/m2
13:09 60.6 °F /  15.9 °C 34.9 °F /  1.6 °C 30.2in /  1022.4hPa East 6.9mph /  11.1km/h 13mph /  20.9km/h 38% 0in /  0.0mm 823 W/m2
13:14 60.6 °F /  15.9 °C 35.6 °F /  2 °C 30.2in /  1022.4hPa East 2mph /  3.2km/h 4mph /  6.4km/h 39% 0in /  0.0mm 821 W/m2
13:19 60.6 °F /  15.9 °C 35.6 °F /  2 °C 30.2in /  1022.4hPa NE 6.9mph /  11.1km/h 11mph /  17.7km/h 39% 0in /  0.0mm 823 W/m2
13:24 60.6 °F /  15.9 °C 36.1 °F /  2.3 °C 30.2in /  1022.4hPa East 0.9mph /  1.4km/h 3mph /  4.8km/h 40% 0in /  0.0mm 821 W/m2
13:29 61.3 °F /  16.3 °C 37.4 °F /  3 °C 30.2in /  1022.4hPa ENE 2mph /  3.2km/h 9mph /  14.5km/h 41% 0in /  0.0mm 823 W/m2
13:34 61.9 °F /  16.6 °C 37.2 °F /  2.9 °C 30.2in /  1022.4hPa ESE 8.1mph /  13km/h 9mph /  14.5km/h 40% 0in /  0.0mm 821 W/m2
13:39 62.1 °F /  16.7 °C 37.4 °F /  3 °C 30.2in /  1022.4hPa NE 4.9mph /  7.9km/h 10mph /  16.1km/h 40% 0in /  0.0mm 821 W/m2
13:44 61.9 °F /  16.6 °C 36 °F /  2.2 °C 30.2in /  1022.4hPa East 2mph /  3.2km/h 7mph /  11.3km/h 38% 0in /  0.0mm 823 W/m2
13:50 61.7 °F /  16.5 °C 35.8 °F /  2.1 °C 30.2in /  1022.4hPa NE 0.9mph /  1.4km/h 5mph /  8km/h 38% 0in /  0.0mm 821 W/m2
13:55 61.5 °F /  16.4 °C 35.1 °F /  1.7 °C 30.2in /  1022.4hPa ESE 6mph /  9.7km/h 9mph /  14.5km/h 37% 0in /  0.0mm 821 W/m2
14:00 61.9 °F /  16.6 °C 34 °F /  1.1 °C 30.2in /  1022.4hPa ENE 4.9mph /  7.9km/h 8mph /  12.9km/h 35% 0in /  0.0mm 821 W/m2
14:05 61.9 °F /  16.6 °C 36.7 °F /  2.6 °C 30.2in /  1022.4hPa ESE 11mph /  17.7km/h 11mph /  17.7km/h 39% 0in /  0.0mm 816 W/m2
14:10 61.9 °F /  16.6 °C 35.2 °F /  1.8 °C 30.2in /  1022.4hPa North 0.9mph /  1.4km/h 4mph /  6.4km/h 37% 0in /  0.0mm 814 W/m2
14:15 62.1 °F /  16.7 °C 35.4 °F /  1.9 °C 30.2in /  1022.4hPa Calm   4mph /  6.4km/h 37% 0in /  0.0mm 810 W/m2
14:20 62.2 °F /  16.8 °C 35.6 °F /  2 °C 30.2in /  1022.0hPa ENE 4mph /  6.4km/h 6mph /  9.7km/h 37% 0in /  0.0mm 803 W/m2
14:25 62.2 °F /  16.8 °C 34.2 °F /  1.2 °C 30.2in /  1022.4hPa North 2mph /  3.2km/h 7mph /  11.3km/h 35% 0in /  0.0mm 805 W/m2
14:30 62.4 °F /  16.9 °C 35.8 °F /  2.1 °C 30.2in /  1022.4hPa East 0.9mph /  1.4km/h 4mph /  6.4km/h 37% 0in /  0.0mm 800 W/m2
14:35 63 °F /  17.2 °C 35.6 °F /  2 °C 30.2in /  1022.4hPa SSE 2mph /  3.2km/h 6mph /  9.7km/h 36% 0in /  0.0mm 796 W/m2
14:40 63 °F /  17.2 °C 36.3 °F /  2.4 °C 30.2in /  1022.0hPa ENE 2.9mph /  4.7km/h 6mph /  9.7km/h 37% 0in /  0.0mm 793 W/m2
14:45 63 °F /  17.2 °C 37 °F /  2.8 °C 30.2in /  1022.0hPa NNW 2mph /  3.2km/h 6mph /  9.7km/h 38% 0in /  0.0mm 788 W/m2
14:50 63.1 °F /  17.3 °C 37 °F /  2.8 °C 30.2in /  1022.0hPa East 8.9mph /  14.3km/h 9mph /  14.5km/h 38% 0in /  0.0mm 780 W/m2
14:55 63.1 °F /  17.3 °C 36.5 °F /  2.5 °C 30.2in /  1022.0hPa ENE 0.9mph /  1.4km/h 4mph /  6.4km/h 37% 0in /  0.0mm 779 W/m2
15:00 63.5 °F /  17.5 °C 36.7 °F /  2.6 °C 30.2in /  1022.0hPa East 2.9mph /  4.7km/h 13mph /  20.9km/h 37% 0in /  0.0mm 772 W/m2
15:05 63.3 °F /  17.4 °C 35.2 °F /  1.8 °C 30.2in /  1022.0hPa NW 2.9mph /  4.7km/h 7mph /  11.3km/h 35% 0in /  0.0mm 765 W/m2
15:10 63.1 °F /  17.3 °C 35.8 °F /  2.1 °C 30.2in /  1022.0hPa West 2mph /  3.2km/h 11mph /  17.7km/h 36% 0in /  0.0mm 758 W/m2
15:15 63.3 °F /  17.4 °C 37.9 °F /  3.3 °C 30.2in /  1022.0hPa ESE 2mph /  3.2km/h 6mph /  9.7km/h 39% 0in /  0.0mm 745 W/m2
15:20 63.7 °F /  17.6 °C 36.9 °F /  2.7 °C 30.2in /  1022.0hPa ESE 6mph /  9.7km/h 10mph /  16.1km/h 37% 0in /  0.0mm 742 W/m2
15:25 63.3 °F /  17.4 °C 36 °F /  2.2 °C 30.2in /  1022.0hPa ESE 4mph /  6.4km/h 7mph /  11.3km/h 36% 0in /  0.0mm 737 W/m2
15:30 63.3 °F /  17.4 °C 36 °F /  2.2 °C 30.2in /  1022.0hPa SE 0.9mph /  1.4km/h 10mph /  16.1km/h 36% 0in /  0.0mm 726 W/m2
15:35 63.3 °F /  17.4 °C 36 °F /  2.2 °C 30.2in /  1022.0hPa SE 0.9mph /  1.4km/h 6mph /  9.7km/h 36% 0in /  0.0mm 722 W/m2
15:40 63.7 °F /  17.6 °C 36.9 °F /  2.7 °C 30.2in /  1022.0hPa SSW 2mph /  3.2km/h 5mph /  8km/h 37% 0in /  0.0mm 715 W/m2
15:45 63.7 °F /  17.6 °C 35.6 °F /  2 °C 30.2in /  1022.0hPa East 2.9mph /  4.7km/h 6mph /  9.7km/h 35% 0in /  0.0mm 707 W/m2
15:50 63.7 °F /  17.6 °C 36.9 °F /  2.7 °C 30.2in /  1022.0hPa East 4mph /  6.4km/h 4mph /  6.4km/h 37% 0in /  0.0mm 700 W/m2
15:55 64 °F /  17.8 °C 37.2 °F /  2.9 °C 30.2in /  1022.0hPa NNE 2.9mph /  4.7km/h 4mph /  6.4km/h 37% 0in /  0.0mm 689 W/m2
16:00 64.6 °F /  18.1 °C 35.6 °F /  2 °C 30.2in /  1022.0hPa East 4mph /  6.4km/h 6mph /  9.7km/h 34% 0in /  0.0mm 686 W/m2
16:05 64.6 °F /  18.1 °C 36.3 °F /  2.4 °C 30.2in /  1022.0hPa East 2mph /  3.2km/h 3mph /  4.8km/h 35% 0in /  0.0mm 671 W/m2
16:10 64.6 °F /  18.1 °C 37.8 °F /  3.2 °C 30.2in /  1022.0hPa East 0.9mph /  1.4km/h 6mph /  9.7km/h 37% 0in /  0.0mm 663 W/m2
16:15 64.9 °F /  18.3 °C 36.7 °F /  2.6 °C 30.2in /  1022.0hPa ESE 6.9mph /  11.1km/h 12mph /  19.3km/h 35% 0in /  0.0mm 650 W/m2
16:20 64.6 °F /  18.1 °C 37 °F /  2.8 °C 30.2in /  1022.0hPa SSE 2.9mph /  4.7km/h 5mph /  8km/h 36% 0in /  0.0mm 645 W/m2
16:25 64.6 °F /  18.1 °C 36.3 °F /  2.4 °C 30.2in /  1022.0hPa Calm   12mph /  19.3km/h 35% 0in /  0.0mm 631 W/m2
16:30 64.8 °F /  18.2 °C 35.8 °F /  2.1 °C 30.2in /  1021.7hPa Calm   4mph /  6.4km/h 34% 0in /  0.0mm 621 W/m2
16:35 64.9 °F /  18.3 °C 37.4 °F /  3 °C 30.2in /  1021.7hPa ENE 4mph /  6.4km/h 7mph /  11.3km/h 36% 0in /  0.0mm 612 W/m2
16:40 65.1 °F /  18.4 °C 36.9 °F /  2.7 °C 30.2in /  1021.7hPa ENE 2mph /  3.2km/h 13mph /  20.9km/h 35% 0in /  0.0mm 599 W/m2
16:45 64.9 °F /  18.3 °C 36.7 °F /  2.6 °C 30.2in /  1021.7hPa NNW 2mph /  3.2km/h 3mph /  4.8km/h 35% 0in /  0.0mm 587 W/m2
16:50 64.9 °F /  18.3 °C 38.1 °F /  3.4 °C 30.2in /  1021.7hPa SSE 2mph /  3.2km/h 11mph /  17.7km/h 37% 0in /  0.0mm 578 W/m2
16:55 65.1 °F /  18.4 °C 37.6 °F /  3.1 °C 30.2in /  1021.7hPa NNE 2.9mph /  4.7km/h 3mph /  4.8km/h 36% 0in /  0.0mm 566 W/m2
17:00 65.7 °F /  18.7 °C 37.2 °F /  2.9 °C 30.2in /  1021.7hPa NNW 0.9mph /  1.4km/h 6mph /  9.7km/h 35% 0in /  0.0mm 555 W/m2
17:05 65.8 °F /  18.8 °C 37.4 °F /  3 °C 30.2in /  1021.7hPa NW 0.9mph /  1.4km/h 3mph /  4.8km/h 35% 0in /  0.0mm 543 W/m2
17:11 66.2 °F /  19 °C 37.8 °F /  3.2 °C 30.2in /  1021.7hPa Calm   5mph /  8km/h 35% 0in /  0.0mm 531 W/m2
17:16 66.4 °F /  19.1 °C 37.2 °F /  2.9 °C 30.2in /  1021.7hPa ENE 2.9mph /  4.7km/h 3mph /  4.8km/h 34% 0in /  0.0mm 519 W/m2
17:21 66 °F /  18.9 °C 36.1 °F /  2.3 °C 30.2in /  1021.7hPa Calm   9mph /  14.5km/h 33% 0in /  0.0mm 506 W/m2
17:26 66.4 °F /  19.1 °C 37.2 °F /  2.9 °C 30.2in /  1021.7hPa ENE 0.9mph /  1.4km/h 6mph /  9.7km/h 34% 0in /  0.0mm 492 W/m2
17:31 66.4 °F /  19.1 °C 37.2 °F /  2.9 °C 30.2in /  1021.7hPa East 2.9mph /  4.7km/h 9mph /  14.5km/h 34% 0in /  0.0mm 485 W/m2
17:36 66 °F /  18.9 °C 37.6 °F /  3.1 °C 30.2in /  1021.7hPa NW 2.9mph /  4.7km/h 6mph /  9.7km/h 35% 0in /  0.0mm 469 W/m2
17:41 66 °F /  18.9 °C 37.6 °F /  3.1 °C 30.2in /  1021.7hPa ENE 4mph /  6.4km/h 6mph /  9.7km/h 35% 0in /  0.0mm 455 W/m2
17:46 65.8 °F /  18.8 °C 36.7 °F /  2.6 °C 30.2in /  1021.7hPa NNW 0.9mph /  1.4km/h 2mph /  3.2km/h 34% 0in /  0.0mm 443 W/m2
17:51 65.8 °F /  18.8 °C 36.7 °F /  2.6 °C 30.2in /  1021.7hPa WNW 2.9mph /  4.7km/h 7mph /  11.3km/h 34% 0in /  0.0mm 429 W/m2
17:56 65.7 °F /  18.7 °C 37.2 °F /  2.9 °C 30.2in /  1021.7hPa ENE 2.9mph /  4.7km/h 7mph /  11.3km/h 35% 0in /  0.0mm 418 W/m2
18:01 65.5 °F /  18.6 °C 35.6 °F /  2 °C 30.2in /  1021.7hPa North 2mph /  3.2km/h 4mph /  6.4km/h 33% 0in /  0.0mm 404 W/m2
18:06 65.7 °F /  18.7 °C 36.5 °F /  2.5 °C 30.2in /  1021.7hPa NNE 0.9mph /  1.4km/h 6mph /  9.7km/h 34% 0in /  0.0mm 390 W/m2
18:11 65.7 °F /  18.7 °C 37.2 °F /  2.9 °C 30.2in /  1021.7hPa East 0.9mph /  1.4km/h 4mph /  6.4km/h 35% 0in /  0.0mm 376 W/m2
18:16 65.7 °F /  18.7 °C 37.2 °F /  2.9 °C 30.2in /  1021.7hPa East 4mph /  6.4km/h 6mph /  9.7km/h 35% 0in /  0.0mm 364 W/m2
18:21 65.7 °F /  18.7 °C 37.9 °F /  3.3 °C 30.2in /  1021.7hPa ENE 2.9mph /  4.7km/h 5mph /  8km/h 36% 0in /  0.0mm 350 W/m2
18:26 65.8 °F /  18.8 °C 37.4 °F /  3 °C 30.2in /  1021.7hPa ESE 2mph /  3.2km/h 4mph /  6.4km/h 35% 0in /  0.0mm 336 W/m2
18:31 65.5 °F /  18.6 °C 37 °F /  2.8 °C 30.2in /  1021.7hPa ESE 0.9mph /  1.4km/h 5mph /  8km/h 35% 0in /  0.0mm 322 W/m2
18:36 65.1 °F /  18.4 °C 36.9 °F /  2.7 °C 30.2in /  1021.7hPa NE 4.9mph /  7.9km/h 5mph /  8km/h 35% 0in /  0.0mm 311 W/m2
18:41 64.9 °F /  18.3 °C 36.7 °F /  2.6 °C 30.2in /  1021.7hPa ENE 2.9mph /  4.7km/h 4mph /  6.4km/h 35% 0in /  0.0mm 297 W/m2
18:46 64.8 °F /  18.2 °C 35.8 °F /  2.1 °C 30.2in /  1021.7hPa ENE 8.1mph /  13km/h 10mph /  16.1km/h 34% 0in /  0.0mm 285 W/m2
18:51 64.8 °F /  18.2 °C 35.8 °F /  2.1 °C 30.2in /  1021.7hPa East 0.9mph /  1.4km/h 5mph /  8km/h 34% 0in /  0.0mm 271 W/m2
18:56 64.8 °F /  18.2 °C 35.1 °F /  1.7 °C 30.2in /  1021.7hPa Calm   10mph /  16.1km/h 33% 0in /  0.0mm 258 W/m2
19:01 65.1 °F /  18.4 °C 36.1 °F /  2.3 °C 30.2in /  1022.0hPa WNW 2mph /  3.2km/h 4mph /  6.4km/h 34% 0in /  0.0mm 246 W/m2
19:06 65.5 °F /  18.6 °C 35.6 °F /  2 °C 30.2in /  1022.0hPa NW 2mph /  3.2km/h 6mph /  9.7km/h 33% 0in /  0.0mm 230 W/m2
19:11 65.5 °F /  18.6 °C 37 °F /  2.8 °C 30.2in /  1021.7hPa East 0.9mph /  1.4km/h 2mph /  3.2km/h 35% 0in /  0.0mm 213 W/m2
19:16 65.7 °F /  18.7 °C 35.8 °F /  2.1 °C 30.2in /  1022.0hPa East 0.9mph /  1.4km/h 3mph /  4.8km/h 33% 0in /  0.0mm 199 W/m2
19:21 65.7 °F /  18.7 °C 36.5 °F /  2.5 °C 30.2in /  1022.0hPa ESE 0.9mph /  1.4km/h 4mph /  6.4km/h 34% 0in /  0.0mm 185 W/m2
19:26 65.7 °F /  18.7 °C 36.5 °F /  2.5 °C 30.2in /  1022.0hPa ENE 2mph /  3.2km/h 3mph /  4.8km/h 34% 0in /  0.0mm 169 W/m2
19:31 65.1 °F /  18.4 °C 36.1 °F /  2.3 °C 30.2in /  1022.0hPa Calm   1mph /  1.6km/h 34% 0in /  0.0mm 151 W/m2
19:36 64.9 °F /  18.3 °C 36 °F /  2.2 °C 30.2in /  1022.0hPa Calm   2mph /  3.2km/h 34% 0in /  0.0mm 135 W/m2
19:41 64.8 °F /  18.2 °C 35.1 °F /  1.7 °C 30.2in /  1022.0hPa NE 0.9mph /  1.4km/h 4mph /  6.4km/h 33% 0in /  0.0mm 121 W/m2
19:46 64.6 °F /  18.1 °C 34.9 °F /  1.6 °C 30.2in /  1022.0hPa ESE 0.9mph /  1.4km/h 3mph /  4.8km/h 33% 0in /  0.0mm 107 W/m2
19:51 64.6 °F /  18.1 °C 35.6 °F /  2 °C 30.2in /  1022.0hPa ENE 2mph /  3.2km/h 3mph /  4.8km/h 34% 0in /  0.0mm 93 W/m2
19:57 64.2 °F /  17.9 °C 36 °F /  2.2 °C 30.2in /  1022.0hPa NE 2mph /  3.2km/h 2mph /  3.2km/h 35% 0in /  0.0mm 81 W/m2
20:02 63.9 °F /  17.7 °C 34.2 °F /  1.2 °C 30.2in /  1022.0hPa NE 0.9mph /  1.4km/h 3mph /  4.8km/h 33% 0in /  0.0mm 70 W/m2
20:07 63.7 °F /  17.6 °C 37.6 °F /  3.1 °C 30.2in /  1022.0hPa SE 2mph /  3.2km/h 2mph /  3.2km/h 38% 0in /  0.0mm 44 W/m2
20:12 63.3 °F /  17.4 °C 37.2 °F /  2.9 °C 30.2in /  1022.4hPa ESE 0.9mph /  1.4km/h 1mph /  1.6km/h 38% 0in /  0.0mm 49 W/m2
20:17 63 °F /  17.2 °C 36.3 °F /  2.4 °C 30.2in /  1022.4hPa East 0.9mph /  1.4km/h 3mph /  4.8km/h 37% 0in /  0.0mm 39 W/m2
20:22 62.2 °F /  16.8 °C 37.6 °F /  3.1 °C 30.2in /  1022.4hPa Calm   1mph /  1.6km/h 40% 0in /  0.0mm 21 W/m2
20:27 61.3 °F /  16.3 °C 36.1 °F /  2.3 °C 30.2in /  1022.4hPa East 0.9mph /  1.4km/h 2mph /  3.2km/h 39% 0in /  0.0mm 19 W/m2
20:32 61 °F /  16.1 °C 35.2 °F /  1.8 °C 30.2in /  1022.4hPa ESE 0.9mph /  1.4km/h 1mph /  1.6km/h 38% 0in /  0.0mm 18 W/m2
20:37 60.6 °F /  15.9 °C 34.9 °F /  1.6 °C 30.2in /  1022.4hPa NNW 2mph /  3.2km/h 4mph /  6.4km/h 38% 0in /  0.0mm 14 W/m2
20:42 60.4 °F /  15.8 °C 34.7 °F /  1.5 °C 30.2in /  1022.4hPa ENE 0.9mph /  1.4km/h 2mph /  3.2km/h 38% 0in /  0.0mm 11 W/m2
20:47 60.3 °F /  15.7 °C 35.2 °F /  1.8 °C 30.2in /  1022.7hPa Calm   1mph /  1.6km/h 39% 0in /  0.0mm 11 W/m2
20:52 59.7 °F /  15.4 °C 37.8 °F /  3.2 °C 30.2in /  1022.4hPa Calm   2mph /  3.2km/h 44% 0in /  0.0mm 7 W/m2
20:57 59 °F /  15 °C 38.8 °F /  3.8 °C 30.2in /  1022.7hPa Calm   1mph /  1.6km/h 47% 0in /  0.0mm 5 W/m2
21:02 58.5 °F /  14.7 °C 38.8 °F /  3.8 °C 30.2in /  1022.7hPa SSE 0.9mph /  1.4km/h 2mph /  3.2km/h 48% 0in /  0.0mm 5 W/m2
21:07 57.6 °F /  14.2 °C 38.5 °F /  3.6 °C 30.2in /  1022.7hPa SSE 0.9mph /  1.4km/h 2mph /  3.2km/h 49% 0in /  0.0mm 0 W/m2
21:12 56.7 °F /  13.7 °C 38.3 °F /  3.5 °C 30.2in /  1022.7hPa SSE 0.9mph /  1.4km/h 1mph /  1.6km/h 50% 0in /  0.0mm 0 W/m2
21:17 55.9 °F /  13.3 °C 38.5 °F /  3.6 °C 30.2in /  1022.7hPa Calm     52% 0in /  0.0mm 0 W/m2
21:22 55.2 °F /  12.9 °C 37.9 °F /  3.3 °C 30.2in /  1022.7hPa SSE 0.9mph /  1.4km/h 2mph /  3.2km/h 52% 0in /  0.0mm 0 W/m2
21:27 54.7 °F /  12.6 °C 38.3 °F /  3.5 °C 30.2in /  1023.0hPa SSE 0.9mph /  1.4km/h 2mph /  3.2km/h 54% 0in /  0.0mm 0 W/m2
21:32 54 °F /  12.2 °C 37.8 °F /  3.2 °C 30.2in /  1023.0hPa Calm   1mph /  1.6km/h 54% 0in /  0.0mm 0 W/m2
21:37 53.4 °F /  11.9 °C 38.1 °F /  3.4 °C 30.2in /  1023.0hPa SSE 0.9mph /  1.4km/h 2mph /  3.2km/h 56% 0in /  0.0mm 0 W/m2
21:42 53.1 °F /  11.7 °C 37.8 °F /  3.2 °C 30.2in /  1023.0hPa Calm     56% 0in /  0.0mm 0 W/m2
21:47 52.5 °F /  11.4 °C 37.8 °F /  3.2 °C 30.2in /  1023.0hPa Calm     57% 0in /  0.0mm 0 W/m2
21:52 52.2 °F /  11.2 °C 37.8 °F /  3.2 °C 30.2in /  1023.0hPa Calm     58% 0in /  0.0mm 0 W/m2
21:57 51.6 °F /  10.9 °C 37.4 °F /  3 °C 30.2in /  1023.0hPa SSE 0.9mph /  1.4km/h 2mph /  3.2km/h 58% 0in /  0.0mm 0 W/m2
22:02 51.4 °F /  10.8 °C 37.6 °F /  3.1 °C 30.2in /  1023.4hPa SSE 0.9mph /  1.4km/h 1mph /  1.6km/h 59% 0in /  0.0mm 0 W/m2
22:07 51.3 °F /  10.7 °C 37.8 °F /  3.2 °C 30.2in /  1023.0hPa Calm   1mph /  1.6km/h 60% 0in /  0.0mm 0 W/m2
22:12 51.1 °F /  10.6 °C 37.8 °F /  3.2 °C 30.2in /  1023.0hPa Calm     60% 0in /  0.0mm 0 W/m2
22:17 50.7 °F /  10.4 °C 37.8 °F /  3.2 °C 30.2in /  1023.0hPa Calm     61% 0in /  0.0mm 0 W/m2
22:22 50.4 °F /  10.2 °C 37.8 °F /  3.2 °C 30.2in /  1023.0hPa Calm     62% 0in /  0.0mm 0 W/m2
22:27 50.2 °F /  10.1 °C 37.6 °F /  3.1 °C 30.2in /  1023.0hPa Calm     62% 0in /  0.0mm 0 W/m2
22:32 49.8 °F /  9.9 °C 37.4 °F /  3 °C 30.2in /  1023.0hPa Calm     62% 0in /  0.0mm 0 W/m2
22:37 49.6 °F /  9.8 °C 37.6 °F /  3.1 °C 30.2in /  1023.4hPa Calm     63% 0in /  0.0mm 0 W/m2
22:42 49.6 °F /  9.8 °C 37.6 °F /  3.1 °C 30.2in /  1023.4hPa Calm     63% 0in /  0.0mm 0 W/m2
22:47 49.5 °F /  9.7 °C 37.4 °F /  3 °C 30.2in /  1023.4hPa Calm     63% 0in /  0.0mm 0 W/m2
22:52 49.3 °F /  9.6 °C 37.2 °F /  2.9 °C 30.2in /  1023.4hPa Calm     63% 0in /  0.0mm 0 W/m2
22:57 48.9 °F /  9.4 °C 37.2 °F /  2.9 °C 30.2in /  1023.4hPa Calm     64% 0in /  0.0mm 0 W/m2
23:02 48.7 °F /  9.3 °C 37 °F /  2.8 °C 30.2in /  1023.4hPa Calm     64% 0in /  0.0mm 0 W/m2
23:07 48.6 °F /  9.2 °C 36.9 °F /  2.7 °C 30.2in /  1023.4hPa Calm     64% 0in /  0.0mm 0 W/m2
23:12 48.2 °F /  9 °C 37 °F /  2.8 °C 30.2in /  1023.4hPa Calm     65% 0in /  0.0mm 0 W/m2
23:17 47.8 °F /  8.8 °C 36.7 °F /  2.6 °C 30.2in /  1023.4hPa Calm     65% 0in /  0.0mm 0 W/m2
23:22 47.7 °F /  8.7 °C 36.5 °F /  2.5 °C 30.2in /  1023.4hPa Calm     65% 0in /  0.0mm 0 W/m2
23:27 47.5 °F /  8.6 °C 36.7 °F /  2.6 °C 30.2in /  1023.4hPa Calm     66% 0in /  0.0mm 0 W/m2
23:32 47.1 °F /  8.4 °C 36.7 °F /  2.6 °C 30.2in /  1023.4hPa Calm     67% 0in /  0.0mm 0 W/m2
23:37 46.9 °F /  8.3 °C 36.5 °F /  2.5 °C 30.2in /  1023.4hPa Calm     67% 0in /  0.0mm 0 W/m2
23:42 46.8 °F /  8.2 °C 36.7 °F /  2.6 °C 30.2in /  1023.4hPa Calm     68% 0in /  0.0mm 0 W/m2
23:47 46.6 °F /  8.1 °C 36.5 °F /  2.5 °C 30.2in /  1023.4hPa Calm     68% 0in /  0.0mm 0 W/m2
23:52 46.6 °F /  8.1 °C 37 °F /  2.8 °C 30.2in /  1023.4hPa Calm     69% 0in /  0.0mm 0 W/m2
23:57 46.4 °F /  8 °C 36.9 °F /  2.7 °C 30.2in /  1023.4hPa Calm     69% 0in /  0.0mm 0 W/m2
Juneau County Weather
Compliments of Weather Underground - 4 mb